createdAt,value
2018-08-30T00:02:24.989Z,5.33
2018-08-30T00:04:54.654Z,5.43
2018-08-30T00:07:24.006Z,5.30
2018-08-30T00:09:53.818Z,4.87
2018-08-30T00:12:23.710Z,4.83
2018-08-30T00:14:53.145Z,5.27
2018-08-30T00:17:22.786Z,4.40
2018-08-30T00:19:52.479Z,4.47
2018-08-30T00:22:22.399Z,4.43
2018-08-30T00:24:51.682Z,3.97
2018-08-30T00:27:21.268Z,3.77
2018-08-30T00:29:50.342Z,3.97
2018-08-30T00:32:19.967Z,3.70
2018-08-30T00:34:49.631Z,3.40
2018-08-30T00:37:18.690Z,3.00
2018-08-30T00:39:48.043Z,2.93
2018-08-30T00:42:17.791Z,2.97
2018-08-30T00:44:47.447Z,2.70
2018-08-30T00:47:20.782Z,3.30
2018-08-30T00:49:50.669Z,3.67
2018-08-30T00:52:19.913Z,3.57
2018-08-30T00:54:48.716Z,3.97
2018-08-30T00:57:18.734Z,4.03
2018-08-30T00:59:48.629Z,4.57
2018-08-30T01:02:18.024Z,3.70
2018-08-30T01:04:47.424Z,4.40
2018-08-30T01:07:16.447Z,3.87
2018-08-30T01:09:45.802Z,3.90
2018-08-30T01:12:14.590Z,3.70
2018-08-30T01:14:44.007Z,4.00
2018-08-30T01:17:13.062Z,4.03
2018-08-30T01:19:42.414Z,4.00
2018-08-30T01:22:11.183Z,4.00
2018-08-30T01:24:40.282Z,4.53
2018-08-30T01:27:09.915Z,3.60
2018-08-30T01:29:38.753Z,3.60
2018-08-30T01:32:08.550Z,4.20
2018-08-30T01:34:38.333Z,3.43
2018-08-30T01:37:07.641Z,3.80
2018-08-30T01:39:36.734Z,3.43
2018-08-30T01:42:05.864Z,2.53
2018-08-30T01:44:34.959Z,2.70
2018-08-30T01:47:03.770Z,2.40
2018-08-30T01:49:32.823Z,2.10
2018-08-30T01:52:02.411Z,2.30
2018-08-30T01:54:31.962Z,2.50
2018-08-30T01:57:01.074Z,2.00
2018-08-30T01:59:36.543Z,2.27
2018-08-30T02:02:06.220Z,2.40
2018-08-30T02:04:35.273Z,2.33
2018-08-30T02:07:04.111Z,2.13
2018-08-30T02:09:33.164Z,2.23
2018-08-30T02:12:02.501Z,2.47
2018-08-30T02:14:32.206Z,2.40
2018-08-30T02:17:01.286Z,2.53
2018-08-30T02:19:30.454Z,3.13
2018-08-30T02:21:59.491Z,2.63
2018-08-30T02:24:28.282Z,3.23
2018-08-30T02:26:57.609Z,3.27
2018-08-30T02:29:26.703Z,3.97
2018-08-30T02:31:55.466Z,3.53
2018-08-30T02:34:24.535Z,4.07
2018-08-30T02:36:53.954Z,3.97
2018-08-30T02:39:23.099Z,4.70
2018-08-30T02:41:51.910Z,3.67
2018-08-30T02:44:20.725Z,3.67
2018-08-30T02:46:49.819Z,3.43
2018-08-30T02:49:18.886Z,4.10
2018-08-30T02:51:47.717Z,3.50
2018-08-30T02:54:16.487Z,3.90
2018-08-30T02:56:45.523Z,3.77
2018-08-30T02:59:14.638Z,3.60
2018-08-30T03:01:43.772Z,3.60
2018-08-30T03:04:12.544Z,3.30
2018-08-30T03:06:41.297Z,3.20
2018-08-30T03:09:10.490Z,3.47
2018-08-30T03:11:39.605Z,3.10
2018-08-30T03:14:08.371Z,4.03
2018-08-30T03:16:37.419Z,3.30
2018-08-30T03:19:06.573Z,3.60
2018-08-30T03:21:35.342Z,3.80
2018-08-30T03:24:04.382Z,4.07
2018-08-30T03:26:33.254Z,4.07
2018-08-30T03:29:02.042Z,3.90
2018-08-30T03:31:30.830Z,3.80
2018-08-30T03:33:59.598Z,3.70
2018-08-30T03:36:28.375Z,3.73
2018-08-30T03:38:57.473Z,3.47
2018-08-30T03:41:26.246Z,3.97
2018-08-30T03:43:56.023Z,3.40
2018-08-30T03:46:24.809Z,3.57
2018-08-30T03:48:53.595Z,3.60
2018-08-30T03:51:22.968Z,3.70
2018-08-30T03:53:53.026Z,3.17
2018-08-30T03:56:21.861Z,2.70
2018-08-30T03:58:51.715Z,3.80
2018-08-30T04:01:21.018Z,2.83
2018-08-30T04:03:50.725Z,3.13
2018-08-30T04:06:20.082Z,3.10
2018-08-30T04:08:49.220Z,3.47
2018-08-30T04:11:18.610Z,3.00
2018-08-30T04:13:48.023Z,2.83
2018-08-30T04:16:17.358Z,3.00
2018-08-30T04:18:46.110Z,3.17
2018-08-30T04:21:14.888Z,3.40
2018-08-30T04:23:44.270Z,2.60
2018-08-30T04:26:13.483Z,2.80
2018-08-30T04:28:42.693Z,2.67
2018-08-30T04:31:12.138Z,2.87
2018-08-30T04:33:41.250Z,2.77
2018-08-30T04:36:10.882Z,2.50
2018-08-30T04:38:39.954Z,2.53
2018-08-30T04:41:09.042Z,2.40
2018-08-30T04:43:38.383Z,2.50
2018-08-30T04:46:07.475Z,2.73
2018-08-30T04:48:36.710Z,2.43
2018-08-30T04:51:06.410Z,2.40
2018-08-30T04:53:35.729Z,2.87
2018-08-30T04:56:05.179Z,2.63
2018-08-30T04:58:33.946Z,2.83
2018-08-30T05:01:03.311Z,2.93
2018-08-30T05:03:33.179Z,3.40
2018-08-30T05:06:02.590Z,3.00
2018-08-30T05:08:31.787Z,2.90
2018-08-30T05:11:01.496Z,2.80
2018-08-30T05:13:30.854Z,2.50
2018-08-30T05:16:00.481Z,2.70
2018-08-30T05:18:29.564Z,2.83
2018-08-30T05:20:58.974Z,2.40
2018-08-30T05:23:28.915Z,2.10
2018-08-30T05:25:58.811Z,2.67
2018-08-30T05:28:28.229Z,1.90
2018-08-30T05:30:57.262Z,2.50
2018-08-30T05:33:26.385Z,2.30
2018-08-30T05:35:55.817Z,2.67
2018-08-30T05:38:24.902Z,2.70
2018-08-30T05:40:54.050Z,2.83
2018-08-30T05:43:23.411Z,2.77
2018-08-30T05:45:52.847Z,2.40
2018-08-30T05:48:21.966Z,2.40
2018-08-30T05:50:50.813Z,2.43
2018-08-30T05:53:19.882Z,1.93
2018-08-30T05:55:49.314Z,1.60
2018-08-30T05:58:18.362Z,1.77
2018-08-30T06:00:47.755Z,1.20
2018-08-30T06:03:16.790Z,1.37
2018-08-30T06:05:45.573Z,1.67
2018-08-30T06:08:14.397Z,1.40
2018-08-30T06:10:43.854Z,1.70
2018-08-30T06:13:13.805Z,1.80
2018-08-30T06:15:43.429Z,2.07
2018-08-30T06:18:12.554Z,1.77
2018-08-30T06:20:41.620Z,1.63
2018-08-30T06:23:11.018Z,1.20
2018-08-30T06:25:40.773Z,1.40
2018-08-30T06:28:09.863Z,1.30
2018-08-30T06:30:39.251Z,1.30
2018-08-30T06:33:08.350Z,0.93
2018-08-30T06:35:37.691Z,1.63
2018-08-30T06:38:07.442Z,1.20
2018-08-30T06:40:36.530Z,1.33
2018-08-30T06:43:06.230Z,1.23
2018-08-30T06:45:35.926Z,1.23
2018-08-30T06:48:04.718Z,1.70
2018-08-30T06:50:33.773Z,1.10
2018-08-30T06:53:02.868Z,1.60
2018-08-30T06:55:32.270Z,1.80
2018-08-30T06:58:01.069Z,1.30
2018-08-30T07:00:30.868Z,1.07
2018-08-30T07:03:00.578Z,1.57
2018-08-30T07:05:30.286Z,1.30
2018-08-30T07:07:59.671Z,1.27
2018-08-30T07:10:29.399Z,1.17
2018-08-30T07:12:58.519Z,1.40
2018-08-30T07:15:27.837Z,1.43
2018-08-30T07:17:57.187Z,1.33
2018-08-30T07:20:27.003Z,1.10
2018-08-30T07:22:56.507Z,1.20
2018-08-30T07:25:25.558Z,1.20
2018-08-30T07:27:55.426Z,1.43
2018-08-30T07:30:24.566Z,1.50
2018-08-30T07:32:53.862Z,1.87
2018-08-30T07:35:22.954Z,1.43
2018-08-30T07:37:52.058Z,1.70
2018-08-30T07:40:21.242Z,1.40
2018-08-30T07:42:50.243Z,1.67
2018-08-30T07:45:19.884Z,1.27
2018-08-30T07:47:49.238Z,1.57
2018-08-30T07:50:18.315Z,1.30
2018-08-30T07:52:47.425Z,1.60
2018-08-30T07:55:16.686Z,1.60
2018-08-30T07:57:45.442Z,1.60
2018-08-30T08:00:14.972Z,1.60
2018-08-30T08:02:44.554Z,1.47
2018-08-30T08:05:13.775Z,1.50
2018-08-30T08:07:42.858Z,1.47
2018-08-30T08:10:12.273Z,1.47
2018-08-30T08:12:41.710Z,1.57
2018-08-30T08:15:10.526Z,1.60
2018-08-30T08:17:39.286Z,1.40
2018-08-30T08:20:08.854Z,1.63
2018-08-30T08:22:38.362Z,1.50
2018-08-30T08:25:07.662Z,1.40
2018-08-30T08:27:36.698Z,1.73
2018-08-30T08:30:06.848Z,1.83
2018-08-30T08:32:36.334Z,1.73
2018-08-30T08:35:05.690Z,1.60
2018-08-30T08:37:34.718Z,1.80
2018-08-30T08:40:04.321Z,1.80
2018-08-30T08:42:33.910Z,1.97
2018-08-30T08:45:03.434Z,1.70
2018-08-30T08:47:32.984Z,2.00
2018-08-30T08:50:01.953Z,1.90
2018-08-30T08:52:31.002Z,1.83
2018-08-30T08:55:00.784Z,1.97
2018-08-30T08:57:29.878Z,1.93
2018-08-30T08:59:59.474Z,2.60
2018-08-30T09:02:28.886Z,1.60
2018-08-30T09:04:57.964Z,1.80
2018-08-30T09:07:27.485Z,1.97
2018-08-30T09:09:57.582Z,1.80
2018-08-30T09:12:26.946Z,1.87
2018-08-30T09:14:56.103Z,1.87
2018-08-30T09:17:25.766Z,1.60
2018-08-30T09:19:54.966Z,2.20
2018-08-30T09:22:24.887Z,2.60
2018-08-30T09:24:55.222Z,1.65
2018-08-30T09:27:25.122Z,1.85
2018-08-30T09:29:54.642Z,1.50
2018-08-30T09:32:23.785Z,1.85
2018-08-30T09:34:52.983Z,1.87
2018-08-30T09:37:22.538Z,1.50
2018-08-30T09:39:51.590Z,1.83
2018-08-30T09:42:20.733Z,1.90
2018-08-30T09:44:49.498Z,1.87
2018-08-30T09:47:19.010Z,1.77
2018-08-30T09:49:48.761Z,1.50
2018-08-30T09:52:18.638Z,1.80
2018-08-30T09:54:47.907Z,1.80
2018-08-30T09:57:17.636Z,1.70
2018-08-30T09:59:47.650Z,1.80
2018-08-30T10:02:21.794Z,1.43
2018-08-30T10:04:51.699Z,2.00
2018-08-30T10:07:20.778Z,1.80
2018-08-30T10:09:49.856Z,1.80
2018-08-30T10:12:19.405Z,1.40
2018-08-30T10:14:48.478Z,1.67
2018-08-30T10:17:17.858Z,2.20
2018-08-30T10:19:46.965Z,1.57
2018-08-30T10:22:16.186Z,1.87
2018-08-30T10:24:45.538Z,1.90
2018-08-30T10:27:15.398Z,1.57
2018-08-30T10:29:44.448Z,1.70
2018-08-30T10:32:13.222Z,2.00
2018-08-30T10:34:42.272Z,1.83
2018-08-30T10:37:11.567Z,1.67
2018-08-30T10:39:41.322Z,1.83
2018-08-30T10:42:10.686Z,1.30
2018-08-30T10:44:39.758Z,1.47
2018-08-30T10:47:09.254Z,1.50
2018-08-30T10:49:38.745Z,1.50
2018-08-30T10:52:07.391Z,2.00
2018-08-30T10:54:36.943Z,2.00
2018-08-30T10:57:06.585Z,1.97
2018-08-30T10:59:36.334Z,1.30
2018-08-30T11:02:05.979Z,1.37
2018-08-30T11:04:35.362Z,2.10
2018-08-30T11:07:04.828Z,1.60
2018-08-30T11:09:34.309Z,1.67
2018-08-30T11:12:03.101Z,1.30
2018-08-30T11:14:32.191Z,1.90
2018-08-30T11:17:01.274Z,1.70
2018-08-30T11:19:30.906Z,2.00
2018-08-30T11:22:00.299Z,1.60
2018-08-30T11:24:29.446Z,1.60
2018-08-30T11:26:58.846Z,1.60
2018-08-30T11:29:28.446Z,2.27
2018-08-30T11:31:57.549Z,1.73
2018-08-30T11:34:27.162Z,1.47
2018-08-30T11:36:55.933Z,1.90
2018-08-30T11:39:25.282Z,1.45
2018-08-30T11:41:54.375Z,1.77
2018-08-30T11:44:23.142Z,1.40
2018-08-30T11:46:52.777Z,1.82
2018-08-30T11:49:21.855Z,1.22
2018-08-30T11:51:51.576Z,1.82
2018-08-30T11:54:21.165Z,2.00
2018-08-30T11:56:51.066Z,1.53
2018-08-30T11:59:20.558Z,1.80
2018-08-30T12:01:50.214Z,1.97
2018-08-30T12:04:19.618Z,1.97
2018-08-30T12:06:49.274Z,2.10
2018-08-30T12:09:18.438Z,1.90
2018-08-30T12:11:48.437Z,2.20
2018-08-30T12:14:18.111Z,1.97
2018-08-30T12:16:47.479Z,1.67
2018-08-30T12:19:16.250Z,1.70
2018-08-30T12:21:45.334Z,1.80
2018-08-30T12:24:14.721Z,2.13
2018-08-30T12:26:44.147Z,1.87
2018-08-30T12:29:13.385Z,2.23
2018-08-30T12:31:42.526Z,2.20
2018-08-30T12:34:11.746Z,2.60
2018-08-30T12:36:41.209Z,1.60
2018-08-30T12:39:12.620Z,1.50
2018-08-30T12:41:42.141Z,1.97
2018-08-30T12:44:11.264Z,1.63
2018-08-30T12:46:40.429Z,2.23
2018-08-30T12:49:09.786Z,1.73
2018-08-30T12:51:39.627Z,2.10
2018-08-30T12:54:08.714Z,2.10
2018-08-30T12:56:37.876Z,1.67
2018-08-30T12:59:12.294Z,2.00
2018-08-30T13:01:41.491Z,2.10
2018-08-30T13:04:10.684Z,2.00
2018-08-30T13:06:44.808Z,2.00
2018-08-30T13:09:15.814Z,1.97
2018-08-30T13:11:45.233Z,2.10
2018-08-30T13:14:14.411Z,2.43
2018-08-30T13:16:44.199Z,2.37
2018-08-30T13:19:13.554Z,2.30
2018-08-30T13:21:43.057Z,2.43
2018-08-30T13:24:12.055Z,1.70
2018-08-30T13:26:41.474Z,2.40
2018-08-30T13:29:10.661Z,2.40
2018-08-30T13:31:40.630Z,2.13
2018-08-30T13:34:09.829Z,2.70
2018-08-30T13:36:38.754Z,2.67
2018-08-30T13:39:09.902Z,2.13
2018-08-30T13:41:39.558Z,2.17
2018-08-30T13:44:10.492Z,2.40
2018-08-30T13:46:40.896Z,2.40
2018-08-30T13:49:11.183Z,2.40
2018-08-30T13:51:40.882Z,2.47
2018-08-30T13:54:10.303Z,2.57
2018-08-30T13:56:40.040Z,2.57
2018-08-30T13:59:09.765Z,2.27
2018-08-30T14:01:38.913Z,2.50
2018-08-30T14:04:08.615Z,3.30
2018-08-30T14:06:37.991Z,2.27
2018-08-30T14:09:07.575Z,1.80
2018-08-30T14:11:36.678Z,2.10
2018-08-30T14:14:06.087Z,2.40
2018-08-30T14:16:34.603Z,2.40
2018-08-30T14:19:04.360Z,2.20
2018-08-30T14:21:33.890Z,2.27
2018-08-30T14:24:03.383Z,3.07
2018-08-30T14:26:32.809Z,2.70
2018-08-30T14:29:02.012Z,2.63
2018-08-30T14:31:31.604Z,2.50
2018-08-30T14:34:01.075Z,2.27
2018-08-30T14:36:29.850Z,2.30
2018-08-30T14:38:59.557Z,2.53
2018-08-30T14:41:29.087Z,2.30
2018-08-30T14:43:58.728Z,2.27
2018-08-30T14:46:27.854Z,2.60
2018-08-30T14:48:57.696Z,2.53
2018-08-30T14:51:26.826Z,2.40
2018-08-30T14:53:57.036Z,2.27
2018-08-30T14:56:26.862Z,2.00
2018-08-30T14:58:56.244Z,2.10
2018-08-30T15:01:25.369Z,2.00
2018-08-30T15:03:54.718Z,2.00
2018-08-30T15:06:24.357Z,1.70
2018-08-30T15:08:53.518Z,1.90
2018-08-30T15:11:23.303Z,2.07
2018-08-30T15:13:52.062Z,1.70
2018-08-30T15:16:21.631Z,2.07
2018-08-30T15:18:51.268Z,1.97
2018-08-30T15:21:20.858Z,2.30
2018-08-30T15:23:50.166Z,1.83
2018-08-30T15:26:19.844Z,1.90
2018-08-30T15:28:49.270Z,2.10
2018-08-30T15:31:18.789Z,1.80
2018-08-30T15:33:48.519Z,1.77
2018-08-30T15:36:17.626Z,1.60
2018-08-30T15:38:47.067Z,1.83
2018-08-30T15:41:16.880Z,2.13
2018-08-30T15:43:45.906Z,1.90
2018-08-30T15:46:15.246Z,1.47
2018-08-30T15:48:44.956Z,2.00
2018-08-30T15:51:14.207Z,2.00
2018-08-30T15:53:42.990Z,1.90
2018-08-30T15:56:12.346Z,1.63
2018-08-30T15:58:41.742Z,1.83
2018-08-30T16:01:11.378Z,1.50
2018-08-30T16:03:41.004Z,2.10
2018-08-30T16:06:10.601Z,1.57
2018-08-30T16:08:40.524Z,1.67
2018-08-30T16:11:09.702Z,1.43
2018-08-30T16:13:39.074Z,1.50
2018-08-30T16:16:08.415Z,1.07
2018-08-30T16:18:37.834Z,1.27
2018-08-30T16:21:07.395Z,1.60
2018-08-30T16:23:37.620Z,1.47
2018-08-30T16:26:07.742Z,1.50
2018-08-30T16:28:37.688Z,1.70
2018-08-30T16:31:07.119Z,1.50
2018-08-30T16:33:36.852Z,1.57
2018-08-30T16:36:05.933Z,1.60
2018-08-30T16:38:35.074Z,1.27
2018-08-30T16:41:04.787Z,1.47
2018-08-30T16:43:34.126Z,1.27
2018-08-30T16:46:03.500Z,1.30
2018-08-30T16:48:32.879Z,1.50
2018-08-30T16:51:02.510Z,1.70
2018-08-30T16:53:32.310Z,1.70
2018-08-30T16:56:02.284Z,1.80
2018-08-30T16:58:31.430Z,1.50
2018-08-30T17:01:00.579Z,2.03
2018-08-30T17:03:29.684Z,1.93
2018-08-30T17:05:59.086Z,1.43
2018-08-30T17:08:28.607Z,1.40
2018-08-30T17:10:58.560Z,1.70
2018-08-30T17:13:28.435Z,1.87
2018-08-30T17:15:57.506Z,1.67
2018-08-30T17:18:27.463Z,2.13
2018-08-30T17:20:57.302Z,1.90
2018-08-30T17:23:26.385Z,1.80
2018-08-30T17:25:56.072Z,2.07
2018-08-30T17:28:25.463Z,2.13
2018-08-30T17:30:54.777Z,2.70
2018-08-30T17:33:24.447Z,3.00
2018-08-30T17:35:53.891Z,3.00
2018-08-30T17:38:23.290Z,2.80
2018-08-30T17:40:52.892Z,2.60
2018-08-30T17:43:22.250Z,2.77
2018-08-30T17:45:51.422Z,2.10
2018-08-30T17:48:21.024Z,2.00
2018-08-30T17:50:49.878Z,1.93
2018-08-30T17:53:18.984Z,1.97
2018-08-30T17:55:48.488Z,1.70
2018-08-30T17:58:17.918Z,2.00
2018-08-30T18:00:47.102Z,1.90
2018-08-30T18:03:16.602Z,2.17
2018-08-30T18:05:45.679Z,1.93
2018-08-30T18:08:14.882Z,1.87
2018-08-30T18:10:44.386Z,1.73
2018-08-30T18:13:13.745Z,2.10
2018-08-30T18:15:43.194Z,2.00
2018-08-30T18:18:12.862Z,1.60
2018-08-30T18:20:42.154Z,1.30
2018-08-30T18:23:11.291Z,1.43
2018-08-30T18:25:40.678Z,1.93
2018-08-30T18:28:10.042Z,1.93
2018-08-30T18:30:39.189Z,1.47
2018-08-30T18:33:07.986Z,1.70
2018-08-30T18:35:37.130Z,1.87
2018-08-30T18:38:06.078Z,2.20
2018-08-30T18:40:35.474Z,1.70
2018-08-30T18:43:05.162Z,1.83
2018-08-30T18:45:34.890Z,1.73
2018-08-30T18:48:03.982Z,1.57
2018-08-30T18:50:33.350Z,1.50
2018-08-30T18:53:02.716Z,1.67
2018-08-30T18:55:32.150Z,2.00
2018-08-30T18:58:01.379Z,1.43
2018-08-30T19:00:30.715Z,1.90
2018-08-30T19:03:00.052Z,2.07
2018-08-30T19:05:28.882Z,1.73
2018-08-30T19:07:58.235Z,1.53
2018-08-30T19:10:27.672Z,1.80
2018-08-30T19:12:57.073Z,1.50
2018-08-30T19:15:31.639Z,1.80
2018-08-30T19:18:06.220Z,2.10
2018-08-30T19:20:35.445Z,1.87
2018-08-30T19:23:05.392Z,1.50
2018-08-30T19:25:34.498Z,1.80
2018-08-30T19:28:03.722Z,1.80
2018-08-30T19:30:33.863Z,1.70
2018-08-30T19:33:03.269Z,1.30
2018-08-30T19:35:37.366Z,1.60
2018-08-30T19:38:07.047Z,1.30
2018-08-30T19:40:41.063Z,1.73
2018-08-30T19:43:10.419Z,1.70
2018-08-30T19:45:40.069Z,1.87
2018-08-30T19:48:09.658Z,1.63
2018-08-30T19:50:38.987Z,1.77
2018-08-30T19:53:08.591Z,1.90
2018-08-30T19:55:37.704Z,1.63
2018-08-30T19:58:07.334Z,1.60
2018-08-30T20:00:36.389Z,1.53
2018-08-30T20:03:05.838Z,1.90
2018-08-30T20:05:35.704Z,1.73
2018-08-30T20:08:05.951Z,1.60
2018-08-30T20:10:35.330Z,1.80
2018-08-30T20:13:04.135Z,1.63
2018-08-30T20:15:33.450Z,1.87
2018-08-30T20:18:02.590Z,1.90
2018-08-30T20:20:32.230Z,2.37
2018-08-30T20:23:01.594Z,2.00
2018-08-30T20:25:30.932Z,2.00
2018-08-30T20:28:00.312Z,2.13
2018-08-30T20:30:29.699Z,2.20
2018-08-30T20:32:59.080Z,2.37
2018-08-30T20:35:28.829Z,3.77
2018-08-30T20:37:57.912Z,2.80
2018-08-30T20:40:27.634Z,2.43
2018-08-30T20:42:56.803Z,2.40
2018-08-30T20:45:26.243Z,1.80
2018-08-30T20:47:55.627Z,2.30
2018-08-30T20:50:25.468Z,1.90
2018-08-30T20:52:55.362Z,2.00
2018-08-30T20:55:24.731Z,2.43
2018-08-30T20:57:54.652Z,1.97
2018-08-30T21:00:24.353Z,1.77
2018-08-30T21:02:53.425Z,2.30
2018-08-30T21:05:22.607Z,1.80
2018-08-30T21:07:52.485Z,1.63
2018-08-30T21:10:21.617Z,1.90
2018-08-30T21:12:50.665Z,2.10
2018-08-30T21:15:20.177Z,1.90
2018-08-30T21:17:49.477Z,1.60
2018-08-30T21:20:19.354Z,1.80
2018-08-30T21:22:49.303Z,2.10
2018-08-30T21:25:18.678Z,2.20
2018-08-30T21:27:47.751Z,2.20
2018-08-30T21:30:17.100Z,1.80
2018-08-30T21:32:46.502Z,1.53
2018-08-30T21:35:15.256Z,1.90
2018-08-30T21:37:44.882Z,1.77
2018-08-30T21:40:14.266Z,2.03
2018-08-30T21:42:44.030Z,1.70
2018-08-30T21:45:13.350Z,2.23
2018-08-30T21:47:42.126Z,1.50
2018-08-30T21:50:11.565Z,2.03
2018-08-30T21:52:41.191Z,1.80
2018-08-30T21:55:10.554Z,1.80
2018-08-30T21:57:39.973Z,2.00
2018-08-30T22:00:09.778Z,1.43
2018-08-30T22:02:38.561Z,1.80
2018-08-30T22:05:07.686Z,1.90
2018-08-30T22:07:37.046Z,1.80
2018-08-30T22:10:07.165Z,1.83
2018-08-30T22:12:36.815Z,1.53
2018-08-30T22:15:06.114Z,1.63
2018-08-30T22:17:35.766Z,1.97
2018-08-30T22:20:05.749Z,1.63
2018-08-30T22:22:34.810Z,1.83
2018-08-30T22:25:04.695Z,2.03
2018-08-30T22:27:34.062Z,1.83
2018-08-30T22:30:03.726Z,2.00
2018-08-30T22:32:32.754Z,1.97
2018-08-30T22:35:02.158Z,1.70
2018-08-30T22:37:31.491Z,2.10
2018-08-30T22:40:00.419Z,2.10
2018-08-30T22:42:29.786Z,2.37
2018-08-30T22:44:59.002Z,1.70
2018-08-30T22:47:27.793Z,2.33
2018-08-30T22:49:56.578Z,1.77
2018-08-30T22:52:26.266Z,2.10
2018-08-30T22:54:55.435Z,1.93
2018-08-30T22:57:24.782Z,2.27
2018-08-30T22:59:54.130Z,2.10
2018-08-30T23:02:23.193Z,2.10
2018-08-30T23:04:52.512Z,2.23
2018-08-30T23:07:21.618Z,1.67
2018-08-30T23:09:50.668Z,2.07
2018-08-30T23:12:19.478Z,1.93
2018-08-30T23:14:48.262Z,1.90
2018-08-30T23:17:17.366Z,2.10
2018-08-30T23:19:46.178Z,1.87
2018-08-30T23:22:15.259Z,2.27
2018-08-30T23:24:44.060Z,2.00
2018-08-30T23:27:13.448Z,1.73
2018-08-30T23:29:42.590Z,2.27
2018-08-30T23:32:11.366Z,1.90
2018-08-30T23:34:40.458Z,1.90
2018-08-30T23:37:10.122Z,2.03
2018-08-30T23:39:39.166Z,2.03
2018-08-30T23:42:08.274Z,2.10
2018-08-30T23:44:37.687Z,2.40
2018-08-30T23:47:07.318Z,2.07
2018-08-30T23:49:36.694Z,2.00
2018-08-30T23:52:05.502Z,2.13
2018-08-30T23:54:35.158Z,1.87
2018-08-30T23:57:04.558Z,2.03
2018-08-30T23:59:44.406Z,2.00
